Hay Springs, Nebraska
Current Conditions -  °F | °C
As of 9:53 AM on Monday 22 Dec 2014 (Local Time) from KCDR Reporting Station
Overcast Overcast  
Wind Chill: 30°   Ceiling: 11000
Heat Index: 39°   Visibility: 10mi
Dew Point: 25°   Wind: 16mph
Humidity: 57%   Direction: 300°WNW
Pressure: 29.64"   Gusts: 26mph
Location:  42.68°N, 102.69°W
Report Text: KCDR 221653Z AUTO 30014G23KT 10SM OVC110 04/M04 A2964 RMK AO2 SLP056 T00391039
Loading
Personal Weather Stations






























Interactive Weather Map New forecast layout! Learn more

10-Day Weather Forecast

Advertisements
Track Severe Weather on mobile